Accueil
METAR-TAF:

METAR-TAF

Aéroports :

Norwood Memorial Airport

Norwood, Massachusetts, États-Unis

latitude: 42-11-27N, longitude: 071-10-26W, altitude: 15 m

Observation

Le bulletin a été fait il y a 40 minutes, à 04:53 UTC
Vent 4 kt de sud
Température 14°C
Humidité 88%
Pression 1008 hPa
Visibilité: 16.1 km
Nuages fragmentés à une hauteur de 7000 ft
Ciel couvert à une hauteur de 11000 ft

METAR: KOWD 030453Z AUTO 19004KT 10SM BKN070 OVC110 14/12 A2977 RMK AO2 RAE0359 SLP080 P0000 T01440117 402330028

Heure: 01:33 (05:33 UTC)


TAF: absent

Observations et prévisions météorologiques de plus de 4000 aéroports (messages METAR et TAF).

Les stations disponibles sont représentées par des disques jaunes et rouges sur la carte.

Passer la souris dessus pour voir le nom de la station.

Cliquer dessus pour voir les observations et prévisions météorologiques.

Pour changer de carte: cliquez sur les boutons verts avec une croix noire pour zoomer, sur le bouton vert avec un tiret pour effectuer un zoom arrière, ou sur les flèches vertes pour les cartes adjacentes.


METAR-TAF: